Latest Weather Observations for Mornington Island Airport

IDQ60801

Issued at 9:13 pm EST Saturday 9 May 2026 (issued every 10 minutes, with the page automatically refreshed every 10 minutes)

About weather observations | Map of weather stations | Latest weather observations for QLD | Other Formats
Station Details ID: 029182 Name: MORNINGTON ISLAND AIRPORT Lat: -16.66 Lon: 139.17 Height: 9.52 m
Data from the previous 72 hours. | See also: Recent months at Mornington Island Airport
Date/Time
EST
Temp
°C
App
Temp
°C
Dew
Point
°C
Rel
Hum
%
Delta-T
°C
Wind Press
QNH
hPa
Press
MSL
hPa
Rain since
9am
mm
Dir  Spd
km/h
Gust
km/h
Spd
kts
Gust
kts
09/09:00pm 22.9 21.5 17.1 70 3.6 SE 20 35 11 19 1016.5 1016.4 0.0
09/08:30pm 24.0 23.2 18.0 69 3.8 SE 19 26 10 14 1015.9 1015.8 0.0
09/08:00pm 26.2 25.6 16.7 56 5.9 SE 15 24 8 13 1015.4 1015.3 0.0
09/07:30pm 26.1 25.9 17.5 59 5.4 SE 15 22 8 12 1014.9 1014.8 0.0
09/07:00pm 26.3 25.4 16.8 56 5.9 SE 17 26 9 14 1014.5 1014.4 0.0
09/06:30pm 26.4 26.3 16.9 56 5.9 SE 13 20 7 11 1014.2 1014.1 0.0
09/06:00pm 26.6 26.7 17.4 57 5.8 SE 13 19 7 10 1014.0 1013.9 0.0
09/05:30pm 26.5 25.7 17.0 56 5.9 ESE 17 26 9 14 1013.5 1013.4 0.0
09/05:00pm 26.3 25.6 16.5 54 6.0 SE 15 26 8 14 1013.4 1013.3 0.0
09/04:30pm 26.3 25.3 16.5 54 6.1 SE 17 28 9 15 1013.3 1013.2 0.0
09/04:00pm 25.8 24.3 16.4 56 5.8 SE 19 26 10 14 1013.2 1013.1 0.0
09/03:30pm 25.7 24.0 15.7 54 6.1 SE 19 30 10 16 1013.0 1012.9 0.0
09/03:00pm 25.8 23.9 15.8 54 6.1 SE 20 32 11 17 1013.1 1013.0 0.0
09/02:30pm 26.1 24.2 15.8 53 6.3 SE 20 32 11 17 1013.4 1013.3 0.0
09/02:00pm 26.6 24.8 15.9 51 6.6 SE 20 33 11 18 1013.6 1013.5 0.0
09/01:30pm 26.1 23.7 15.5 52 6.4 SSE 22 39 12 21 1014.1 1014.0 0.0
09/01:00pm 26.1 23.4 15.5 52 6.4 SE 24 39 13 21 1014.4 1014.3 0.0
09/12:30pm 25.1 22.3 14.3 51 6.4 SE 22 33 12 18 1014.8 1014.7 0.0
09/12:00pm 24.8 21.6 14.3 52 6.2 SE 24 37 13 20 1015.1 1015.0 0.0
09/11:30am 24.9 21.8 14.4 52 6.2 SE 24 35 13 19 1015.6 1015.5 0.0
09/11:00am 23.8 19.8 13.1 51 6.2 SE 26 43 14 23 1015.7 1015.6 0.0
09/10:30am 23.9 20.3 13.2 51 6.2 SE 24 39 13 21 1016.0 1015.9 0.0
09/10:00am 23.7 20.0 12.7 50 6.3 SE 24 39 13 21 1016.0 1015.9 0.0
09/09:30am 23.7 20.0 12.7 50 6.3 SE 24 39 13 21 1015.8 1015.7 0.0
09/09:00am 23.4 18.7 12.1 49 6.4 SE 28 41 15 22 1015.4 1015.3 0.0
09/08:30am 22.9 18.2 11.9 50 6.2 SE 28 52 15 28 1015.0 1014.9 0.0
09/08:23am 22.7 17.9 11.7 49 6.2 SE 28 52 15 28 1015.0 1014.9 0.0
09/08:00am 22.5 17.9 12.2 52 5.8 SE 28 41 15 22 1015.1 1015.0 0.0
09/07:45am 22.0 17.1 11.4 51 5.9 SE 28 46 15 25 1014.9 1014.8 0.0
09/07:30am 21.8 17.7 11.5 52 5.7 SE 24 44 13 24 1014.8 1014.7 0.0
09/07:04am 21.9 17.0 11.3 51 5.9 SE 28 46 15 25 1014.4 1014.3 0.0
09/07:00am 22.0 17.6 11.7 52 5.8 SE 26 46 14 25 1014.3 1014.2 0.0
09/06:36am 22.1 17.2 11.2 50 6.0 SSE 28 46 15 25 1014.0 1013.9 0.0
09/06:30am 22.1 17.2 11.2 50 6.0 SE 28 44 15 24 1013.9 1013.8 0.0
09/06:00am 22.3 17.3 11.1 49 6.2 SE 28 52 15 28 1013.6 1013.5 0.0
09/05:59am 22.3 17.3 11.1 49 6.2 SE 28 52 15 28 1013.6 1013.5 0.0
09/05:30am 22.6 17.8 11.7 50 6.1 SSE 28 43 15 23 1013.4 1013.3 0.0
09/05:01am 23.0 18.0 12.3 51 6.1 SE 30 48 16 26 1013.3 1013.2 0.0
09/05:00am 23.0 17.5 12.0 50 6.2 SE 32 48 17 26 1013.2 1013.1 0.0
09/04:30am 23.2 18.1 11.9 49 6.4 SSE 30 48 16 26 1013.3 1013.2 0.0
09/04:05am 23.7 19.3 13.0 51 6.2 SE 28 48 15 26 1013.3 1013.2 0.0
09/04:00am 23.7 19.9 13.6 53 5.9 SE 26 43 14 23 1013.2 1013.1 0.0
09/03:30am 24.0 20.6 14.7 56 5.5 SE 26 41 14 22 1013.5 1013.4 0.0
09/03:11am 24.2 20.4 14.6 55 5.7 SSE 28 46 15 25 1013.5 1013.4 0.0
09/03:00am 24.3 21.4 15.0 56 5.6 SSE 24 39 13 21 1013.6 1013.5 0.0
09/02:30am 24.5 22.1 15.4 57 5.5 SE 22 35 12 19 1013.6 1013.5 0.0
09/02:00am 24.9 22.3 15.0 54 5.9 SE 22 37 12 20 1013.7 1013.6 0.0
09/01:30am 25.3 21.9 14.7 51 6.3 SE 26 41 14 22 1013.9 1013.8 0.0
09/01:00am 25.6 22.5 15.6 54 6.1 SE 26 39 14 21 1013.8 1013.7 0.0
09/12:30am 26.0 22.6 15.7 53 6.3 SSE 28 43 15 23 1014.1 1014.0 0.0
09/12:00am 25.9 24.6 17.3 59 5.4 SSE 20 33 11 18 1014.4 1014.3 0.0
 
Date/Time
EST
Temp
°C
App
Temp
°C
Dew
Point
°C
Rel
Hum
%
Delta-T
°C
Wind Press
QNH
hPa
Press
MSL
hPa
Rain since
9am
mm
Dir  Spd
km/h
Gust
km/h
Spd
kts
Gust
kts
08/11:30pm 26.2 24.9 17.3 58 5.6 SSE 20 30 11 16 1014.4 1014.3 0.0
08/11:00pm 26.3 25.6 17.4 58 5.6 SSE 17 26 9 14 1014.5 1014.4 0.0
08/10:30pm 26.3 26.1 17.6 58 5.5 SSE 15 30 8 16 1014.6 1014.5 0.0
08/10:00pm 26.2 26.0 17.6 59 5.4 SSE 15 24 8 13 1014.7 1014.6 0.0
08/09:30pm 25.8 26.6 19.0 66 4.4 SSE 13 20 7 11 1014.9 1014.8 0.0
08/09:00pm 25.9 27.0 18.8 65 4.5 S 11 17 6 9 1014.9 1014.8 0.0
08/08:30pm 25.7 26.6 18.4 64 4.6 SSE 11 17 6 9 1014.6 1014.5 0.0
08/08:00pm 24.8 26.8 19.2 71 3.6 SSE 7 13 4 7 1014.3 1014.2 0.0
08/07:30pm 24.9 27.2 19.9 74 3.2 SSE 7 11 4 6 1013.9 1013.8 0.0
08/07:00pm 25.2 27.4 19.6 71 3.6 SE 7 11 4 6 1013.6 1013.5 0.0
08/06:30pm 25.9 27.4 18.8 65 4.5 SE 9 15 5 8 1013.3 1013.2 0.0
08/06:00pm 26.9 27.1 17.7 57 5.8 SE 13 17 7 9 1013.0 1012.9 0.0
08/05:30pm 27.5 27.7 17.7 55 6.2 SE 13 22 7 12 1012.7 1012.6 0.0
08/05:00pm 27.8 27.6 17.6 53 6.4 SE 15 24 8 13 1012.5 1012.4 0.0
08/04:30pm 28.2 26.8 17.1 51 7.0 SE 20 32 11 17 1012.4 1012.3 0.0
08/04:00pm 27.8 26.3 16.7 50 6.9 SE 20 33 11 18 1012.5 1012.4 0.0
08/03:30pm 27.7 26.0 17.3 53 6.5 SSE 22 35 12 19 1012.6 1012.5 0.0
08/03:00pm 27.8 26.6 17.6 53 6.4 SSE 20 37 11 20 1012.5 1012.4 0.0
08/02:30pm 27.9 26.3 17.4 52 6.6 SSE 22 35 12 19 1012.5 1012.4 0.0
08/02:00pm 27.4 25.2 17.0 53 6.5 SE 24 37 13 20 1012.7 1012.6 0.0
08/01:30pm 27.2 24.8 16.5 52 6.6 SE 24 35 13 19 1013.1 1013.0 0.0
08/01:00pm 27.3 25.5 16.9 53 6.5 SE 22 35 12 19 1013.4 1013.3 0.0
08/12:30pm 26.9 24.3 16.8 54 6.3 SE 26 41 14 22 1013.8 1013.7 0.0
08/12:00pm 26.5 23.7 16.4 53 6.2 SE 26 48 14 26 1014.3 1014.2 0.0
08/11:52am 26.1 22.8 16.1 54 6.1 SE 28 48 15 26 1014.4 1014.3 0.0
08/11:30am 25.9 22.9 15.9 54 6.1 SE 26 39 14 21 1014.7 1014.6 0.0
08/11:11am 25.7 22.4 16.0 55 5.9 SE 28 48 15 26 1014.8 1014.7 0.0
08/11:00am 25.8 23.7 16.1 55 5.9 SE 22 41 12 22 1014.9 1014.8 0.0
08/10:30am 25.6 22.1 15.6 54 6.1 SE 28 43 15 23 1015.1 1015.0 0.0
08/10:00am 25.4 22.2 15.4 54 6.0 SE 26 43 14 23 1015.0 1014.9 0.0
08/09:30am 25.1 21.8 15.1 53 6.0 SE 26 46 14 25 1015.0 1014.9 0.0
08/09:18am 24.9 21.2 15.0 54 5.9 SE 28 46 15 25 1015.0 1014.9 0.0
08/09:00am 24.8 21.5 14.9 54 5.9 SE 26 39 14 21 1014.8 1014.7 0.0
08/08:30am 24.2 21.1 14.6 55 5.7 SE 24 43 13 23 1014.7 1014.6 0.0
08/08:06am 23.8 19.8 14.2 55 5.7 SE 28 46 15 25 1014.6 1014.5 0.0
08/08:00am 23.7 20.4 14.1 55 5.6 SE 24 41 13 22 1014.5 1014.4 0.0
08/07:30am 23.4 19.2 13.6 54 5.7 SSE 28 43 15 23 1014.4 1014.3 0.0
08/07:08am 23.4 19.1 13.3 53 5.8 SSE 28 46 15 25 1014.3 1014.2 0.0
08/07:00am 23.3 19.5 13.5 54 5.7 SSE 26 41 14 22 1014.2 1014.1 0.0
08/06:49am 23.5 19.3 13.4 53 5.9 SSE 28 46 15 25 1014.0 1013.9 0.0
08/06:30am 23.6 19.3 13.2 52 6.0 SSE 28 43 15 23 1013.8 1013.7 0.0
08/06:12am 23.7 19.4 13.3 52 6.0 SE 28 46 15 25 1013.7 1013.6 0.0
08/06:00am 23.8 20.2 13.1 51 6.2 SSE 24 43 13 23 1013.7 1013.6 0.0
08/05:30am 24.0 19.7 13.2 50 6.3 SSE 28 46 15 25 1013.5 1013.4 0.0
08/05:08am 24.2 20.0 13.4 51 6.3 SSE 28 46 15 25 1013.4 1013.3 0.0
08/05:00am 24.0 21.0 13.8 53 6.0 SSE 22 39 12 21 1013.4 1013.3 0.0
08/04:30am 24.6 20.5 13.8 51 6.3 SSE 28 46 15 25 1013.3 1013.2 0.0
08/04:00am 24.8 20.8 14.0 51 6.4 SSE 28 48 15 26 1013.4 1013.3 0.0
08/03:45am 25.0 20.9 13.9 50 6.5 SSE 28 46 15 25 1013.4 1013.3 0.0
08/03:30am 24.9 21.5 14.7 53 6.1 SSE 26 41 14 22 1013.5 1013.4 0.0
08/03:06am 25.3 21.4 14.4 50 6.5 SE 28 50 15 27 1013.5 1013.4 0.0
08/03:00am 25.3 21.5 14.7 51 6.3 SE 28 44 15 24 1013.5 1013.4 0.0
08/02:30am 25.4 22.4 14.8 52 6.3 SSE 24 37 13 20 1013.6 1013.5 0.0
08/02:00am 25.6 22.4 15.3 53 6.2 SSE 26 43 14 23 1013.7 1013.6 0.0
08/01:30am 25.7 23.0 15.7 54 6.1 SSE 24 39 13 21 1013.9 1013.8 0.0
08/01:00am 25.9 24.3 16.5 56 5.8 SSE 20 35 11 19 1013.9 1013.8 0.0
08/12:30am 24.6 25.3 18.8 70 3.7 SSE 13 22 7 12 1014.1 1014.0 0.0
08/12:00am 24.4 25.8 18.6 70 3.7 S 9 13 5 7 1014.0 1013.9 0.0
 
Date/Time
EST
Temp
°C
App
Temp
°C
Dew
Point
°C
Rel
Hum
%
Delta-T
°C
Wind Press
QNH
hPa
Press
MSL
hPa
Rain since
9am
mm
Dir  Spd
km/h
Gust
km/h
Spd
kts
Gust
kts
07/11:30pm 24.7 25.5 18.2 67 4.1 S 11 15 6 8 1014.2 1014.1 0.0
07/11:00pm 24.5 26.3 18.7 70 3.7 S 7 11 4 6 1014.4 1014.3 0.0
07/10:30pm 24.0 26.1 19.3 75 3.0 SSE 7 9 4 5 1014.5 1014.4 0.0
07/10:00pm 24.0 25.7 18.6 72 3.4 SSE 7 9 4 5 1014.5 1014.4 0.0
07/09:30pm 23.2 25.9 20.7 86 1.6 SE 7 9 4 5 1014.5 1014.4 0.0
07/09:00pm 22.9 25.8 20.6 87 1.5 SE 6 7 3 4 1014.4 1014.3 0.0
07/08:30pm 23.5 26.1 20.4 83 2.0 SE 7 9 4 5 1014.2 1014.1 0.0
07/08:00pm 23.5 26.0 20.2 82 2.1 SE 7 7 4 4 1014.0 1013.9 0.0
07/07:30pm 23.9 26.5 20.4 81 2.3 SE 7 7 4 4 1013.6 1013.5 0.0
07/07:00pm 24.8 27.3 19.8 74 3.2 SE 6 9 3 5 1013.3 1013.2 0.0
07/06:30pm 26.3 28.5 19.7 67 4.3 SE 7 9 4 5 1013.3 1013.2 0.0
07/06:00pm 27.3 28.4 18.9 60 5.4 SE 11 17 6 9 1013.0 1012.9 0.0
07/05:30pm 28.1 27.8 17.3 52 6.8 SE 15 20 8 11 1012.7 1012.6 0.0
07/05:00pm 28.4 27.6 17.0 50 7.1 SE 17 26 9 14 1012.4 1012.3 0.0
07/04:30pm 28.3 27.3 17.5 52 6.8 SE 19 28 10 15 1012.3 1012.2 0.0
07/04:00pm 28.7 28.4 18.2 53 6.7 SE 17 28 9 15 1012.4 1012.3 0.0
07/03:30pm 28.1 26.5 16.4 49 7.3 SE 20 32 11 17 1012.4 1012.3 0.0
07/03:00pm 27.9 26.1 15.9 48 7.4 SE 20 33 11 18 1012.6 1012.5 0.0
07/02:30pm 27.9 25.5 15.5 46 7.6 SSE 22 35 12 19 1012.8 1012.7 0.0
07/02:00pm 27.6 25.6 15.6 48 7.3 SSE 20 30 11 16 1013.1 1013.0 0.0
07/01:30pm 27.3 24.9 15.3 48 7.3 SSE 22 33 12 18 1013.2 1013.1 0.0
07/01:00pm 27.2 25.4 15.9 50 6.9 SE 20 35 11 19 1013.4 1013.3 0.0
07/12:30pm 26.6 23.9 14.7 48 7.1 SE 22 33 12 18 1013.7 1013.6 0.0
07/12:00pm 25.9 22.4 14.4 49 6.9 SE 26 39 14 21 1014.2 1014.1 0.0
07/11:30am 25.6 22.0 14.1 49 6.8 SE 26 41 14 22 1014.6 1014.5 0.0
07/11:00am 25.4 21.3 13.9 49 6.8 SE 28 43 15 23 1015.0 1014.9 0.0
07/10:30am 25.3 21.7 14.1 50 6.6 SSE 26 39 14 21 1015.1 1015.0 0.0
07/10:00am 24.9 20.9 14.1 51 6.4 SSE 28 43 15 23 1015.0 1014.9 0.0
07/09:30am 25.0 21.8 14.2 51 6.4 SSE 24 43 13 23 1015.0 1014.9 0.0
07/09:00am 24.8 21.6 14.3 52 6.2 SSE 24 37 13 20 1014.7 1014.6 0.0
07/08:30am 24.4 21.6 14.2 53 6.0 SSE 22 35 12 19 1014.5 1014.4 0.0
07/08:00am 24.2 21.3 14.0 53 6.0 SSE 22 39 12 21 1014.3 1014.2 0.0
07/07:30am 24.0 20.7 14.1 54 5.8 SSE 24 37 13 20 1014.1 1014.0 0.0
07/07:00am 23.9 20.7 14.3 55 5.7 SSE 24 37 13 20 1013.7 1013.6 0.0
07/06:30am 24.2 20.9 14.0 53 6.0 SSE 24 39 13 21 1013.4 1013.3 0.0
07/06:00am 24.5 20.6 14.3 53 6.0 SSE 28 44 15 24 1013.1 1013.0 0.0
07/05:30am 24.7 21.4 15.1 55 5.8 SSE 26 41 14 22 1012.9 1012.8 0.0
07/05:00am 25.0 21.9 15.6 56 5.7 SSE 26 48 14 26 1012.8 1012.7 0.0
07/04:30am 24.6 23.4 17.1 63 4.6 SSE 19 32 10 17 1012.8 1012.7 0.0
07/04:00am 23.7 23.8 18.4 72 3.3 SSE 15 22 8 12 1012.8 1012.7 0.0
07/03:30am 25.1 24.2 17.8 64 4.6 SSE 19 30 10 16 1012.7 1012.6 0.0
07/03:00am 23.7 24.7 18.6 73 3.2 S 11 17 6 9 1012.8 1012.7 0.0
07/02:30am 24.1 24.5 18.1 69 3.8 S 13 19 7 10 1012.8 1012.7 0.0
07/02:00am 24.0 24.6 17.7 68 3.9 S 11 17 6 9 1013.1 1013.0 0.0
07/01:30am 23.7 25.1 17.7 69 3.7 S 7 11 4 6 1013.1 1013.0 0.0
07/01:00am 23.5 26.2 20.6 84 1.9 SSW 7 9 4 5 1013.3 1013.2 0.0
07/12:30am 22.5 25.3 20.4 88 1.4 SW 6 7 3 4 1013.5 1013.4 0.0
07/12:00am 22.4 25.7 19.2 82 2.0 CALM 0 0 0 0 1013.6 1013.5 0.0
 
Date/Time
EST
Temp
°C
App
Temp
°C
Dew
Point
°C
Rel
Hum
%
Delta-T
°C
Wind Press
QNH
hPa
Press
MSL
hPa
Rain since
9am
mm
Dir  Spd
km/h
Gust
km/h
Spd
kts
Gust
kts
06/11:30pm 22.2 25.3 18.6 80 2.3 CALM 0 0 0 0 1013.8 1013.7 0.0
06/11:00pm 21.8 25.2 19.4 86 1.5 CALM 0 0 0 0 1014.0 1013.9 0.0
06/10:30pm 22.1 24.6 19.8 87 1.5 ENE 6 7 3 4 1014.0 1013.9 0.0
06/10:00pm 22.2 24.4 18.4 79 2.4 ENE 4 6 2 3 1014.0 1013.9 0.0
06/09:30pm 22.1 24.0 18.5 80 2.3 ENE 6 6 3 3 1014.3 1014.2 0.0

Other formats

Comma delimited format used in spreadsheet applications
http://www.bom.gov.au/fwo/IDQ60801/IDQ60801.94254.axf

JavaScript Object Notation format (JSON) in row-major order
http://www.bom.gov.au/fwo/IDQ60801/IDQ60801.94254.json

Data quality

Most of these data are generated automatically and are frequently updated. Quality checks on data are not normally performed. It is possible for incorrect values to appear. Refer to information at About Latest Weather Observations and please check the disclaimer before using these data.